sensor_id;sensor_type;location;lat;lon;timestamp;P1;durP1;ratioP1;P2;durP2;ratioP2
64335;SDS011;50672;53.362;-6.240;2023-03-01T00:01:14;1.70;;;1.00;;
64335;SDS011;50672;53.362;-6.240;2023-03-01T00:03:43;2.00;;;1.20;;
64335;SDS011;50672;53.362;-6.240;2023-03-01T00:06:11;2.37;;;0.90;;
64335;SDS011;50672;53.362;-6.240;2023-03-01T00:08:38;3.20;;;0.93;;
64335;SDS011;50672;53.362;-6.240;2023-03-01T00:13:38;1.47;;;0.93;;
64335;SDS011;50672;53.362;-6.240;2023-03-01T00:16:07;2.80;;;1.07;;
64335;SDS011;50672;53.362;-6.240;2023-03-01T00:18:35;2.40;;;1.27;;
64335;SDS011;50672;53.362;-6.240;2023-03-01T00:21:02;4.43;;;1.20;;
64335;SDS011;50672;53.362;-6.240;2023-03-01T00:23:29;2.43;;;1.10;;
64335;SDS011;50672;53.362;-6.240;2023-03-01T00:25:56;1.73;;;0.90;;
64335;SDS011;50672;53.362;-6.240;2023-03-01T00:28:23;2.43;;;0.80;;
64335;SDS011;50672;53.362;-6.240;2023-03-01T00:30:49;5.57;;;1.10;;
64335;SDS011;50672;53.362;-6.240;2023-03-01T00:33:16;6.67;;;1.67;;
64335;SDS011;50672;53.362;-6.240;2023-03-01T00:35:50;3.77;;;0.70;;
64335;SDS011;50672;53.362;-6.240;2023-03-01T00:38:17;3.73;;;0.70;;
64335;SDS011;50672;53.362;-6.240;2023-03-01T00:40:43;3.27;;;0.60;;
64335;SDS011;50672;53.362;-6.240;2023-03-01T00:43:10;1.33;;;0.40;;
64335;SDS011;50672;53.362;-6.240;2023-03-01T00:45:37;1.23;;;0.40;;
64335;SDS011;50672;53.362;-6.240;2023-03-01T00:48:03;0.87;;;0.40;;
64335;SDS011;50672;53.362;-6.240;2023-03-01T00:50:31;3.57;;;0.70;;
64335;SDS011;50672;53.362;-6.240;2023-03-01T00:52:58;2.43;;;0.80;;
64335;SDS011;50672;53.362;-6.240;2023-03-01T00:55:25;2.87;;;0.50;;
64335;SDS011;50672;53.362;-6.240;2023-03-01T00:57:52;2.00;;;0.40;;
64335;SDS011;50672;53.362;-6.240;2023-03-01T01:00:19;5.10;;;1.27;;
64335;SDS011;50672;53.362;-6.240;2023-03-01T01:02:46;4.73;;;0.60;;
64335;SDS011;50672;53.362;-6.240;2023-03-01T01:05:14;1.07;;;0.40;;
64335;SDS011;50672;53.362;-6.240;2023-03-01T01:07:41;1.40;;;0.43;;
64335;SDS011;50672;53.362;-6.240;2023-03-01T01:10:08;2.63;;;1.00;;
64335;SDS011;50672;53.362;-6.240;2023-03-01T01:12:39;1.50;;;0.40;;
64335;SDS011;50672;53.362;-6.240;2023-03-01T01:15:06;2.07;;;0.40;;
64335;SDS011;50672;53.362;-6.240;2023-03-01T01:17:33;0.43;;;0.30;;
64335;SDS011;50672;53.362;-6.240;2023-03-01T01:20:00;2.60;;;0.47;;
64335;SDS011;50672;53.362;-6.240;2023-03-01T01:22:27;1.23;;;0.40;;
64335;SDS011;50672;53.362;-6.240;2023-03-01T01:24:53;2.30;;;0.50;;
64335;SDS011;50672;53.362;-6.240;2023-03-01T01:27:20;1.40;;;0.40;;
64335;SDS011;50672;53.362;-6.240;2023-03-01T01:29:47;1.00;;;0.40;;
64335;SDS011;50672;53.362;-6.240;2023-03-01T01:32:13;2.00;;;0.40;;
64335;SDS011;50672;53.362;-6.240;2023-03-01T01:34:40;1.07;;;0.40;;
64335;SDS011;50672;53.362;-6.240;2023-03-01T01:37:07;0.80;;;0.30;;
64335;SDS011;50672;53.362;-6.240;2023-03-01T01:39:34;2.10;;;0.40;;
64335;SDS011;50672;53.362;-6.240;2023-03-01T01:42:12;0.77;;;0.40;;
64335;SDS011;50672;53.362;-6.240;2023-03-01T01:44:44;0.47;;;0.20;;
64335;SDS011;50672;53.362;-6.240;2023-03-01T01:47:14;2.90;;;0.40;;
64335;SDS011;50672;53.362;-6.240;2023-03-01T01:49:47;0.60;;;0.30;;
64335;SDS011;50672;53.362;-6.240;2023-03-01T01:52:18;0.60;;;0.40;;
64335;SDS011;50672;53.362;-6.240;2023-03-01T01:54:55;0.30;;;0.30;;
64335;SDS011;50672;53.362;-6.240;2023-03-01T01:57:29;1.00;;;0.47;;
64335;SDS011;50672;53.362;-6.240;2023-03-01T02:00:03;1.10;;;0.40;;
64335;SDS011;50672;53.362;-6.240;2023-03-01T02:02:40;0.77;;;0.30;;
64335;SDS011;50672;53.362;-6.240;2023-03-01T02:05:11;2.43;;;0.50;;
64335;SDS011;50672;53.362;-6.240;2023-03-01T02:07:50;1.57;;;0.20;;
64335;SDS011;50672;53.362;-6.240;2023-03-01T02:10:18;4.40;;;0.50;;
64335;SDS011;50672;53.362;-6.240;2023-03-01T02:12:46;0.50;;;0.30;;
64335;SDS011;50672;53.362;-6.240;2023-03-01T02:15:13;0.60;;;0.30;;
64335;SDS011;50672;53.362;-6.240;2023-03-01T02:17:39;1.13;;;0.20;;
64335;SDS011;50672;53.362;-6.240;2023-03-01T02:30:32;1.40;;;0.30;;
64335;SDS011;50672;53.362;-6.240;2023-03-01T02:33:00;1.80;;;0.40;;
64335;SDS011;50672;53.362;-6.240;2023-03-01T02:35:31;1.77;;;0.60;;
64335;SDS011;50672;53.362;-6.240;2023-03-01T02:38:06;1.50;;;0.40;;
64335;SDS011;50672;53.362;-6.240;2023-03-01T02:40:38;1.27;;;0.40;;
64335;SDS011;50672;53.362;-6.240;2023-03-01T02:43:08;4.90;;;1.33;;
64335;SDS011;50672;53.362;-6.240;2023-03-01T02:45:42;3.80;;;0.70;;
64335;SDS011;50672;53.362;-6.240;2023-03-01T02:48:14;3.10;;;0.50;;
64335;SDS011;50672;53.362;-6.240;2023-03-01T02:56:28;3.07;;;0.60;;
64335;SDS011;50672;53.362;-6.240;2023-03-01T02:58:56;1.07;;;0.50;;
64335;SDS011;50672;53.362;-6.240;2023-03-01T03:01:27;2.00;;;0.70;;
64335;SDS011;50672;53.362;-6.240;2023-03-01T03:04:07;3.67;;;0.60;;
64335;SDS011;50672;53.362;-6.240;2023-03-01T03:06:36;2.28;;;0.70;;
64335;SDS011;50672;53.362;-6.240;2023-03-01T03:09:04;2.47;;;0.83;;
64335;SDS011;50672;53.362;-6.240;2023-03-01T03:11:31;0.93;;;0.40;;
64335;SDS011;50672;53.362;-6.240;2023-03-01T03:13:58;3.87;;;1.10;;
64335;SDS011;50672;53.362;-6.240;2023-03-01T03:16:25;1.47;;;0.83;;
64335;SDS011;50672;53.362;-6.240;2023-03-01T03:18:52;1.40;;;0.50;;
64335;SDS011;50672;53.362;-6.240;2023-03-01T03:21:19;2.97;;;0.77;;
64335;SDS011;50672;53.362;-6.240;2023-03-01T03:23:46;0.73;;;0.33;;
64335;SDS011;50672;53.362;-6.240;2023-03-01T03:26:13;2.07;;;0.47;;
64335;SDS011;50672;53.362;-6.240;2023-03-01T03:28:41;1.23;;;0.30;;
64335;SDS011;50672;53.362;-6.240;2023-03-01T03:31:08;2.30;;;0.90;;
64335;SDS011;50672;53.362;-6.240;2023-03-01T03:33:35;1.17;;;0.37;;
64335;SDS011;50672;53.362;-6.240;2023-03-01T03:36:02;1.67;;;0.47;;
64335;SDS011;50672;53.362;-6.240;2023-03-01T03:38:29;0.70;;;0.30;;
64335;SDS011;50672;53.362;-6.240;2023-03-01T03:41:03;2.83;;;0.67;;
64335;SDS011;50672;53.362;-6.240;2023-03-01T03:43:33;3.77;;;0.77;;
64335;SDS011;50672;53.362;-6.240;2023-03-01T03:46:02;1.77;;;0.33;;
64335;SDS011;50672;53.362;-6.240;2023-03-01T03:48:36;1.13;;;0.67;;
64335;SDS011;50672;53.362;-6.240;2023-03-01T03:51:04;1.38;;;0.40;;
64335;SDS011;50672;53.362;-6.240;2023-03-01T03:53:32;2.93;;;0.43;;
64335;SDS011;50672;53.362;-6.240;2023-03-01T03:55:59;1.17;;;0.50;;
64335;SDS011;50672;53.362;-6.240;2023-03-01T04:00:59;0.77;;;0.40;;
64335;SDS011;50672;53.362;-6.240;2023-03-01T04:03:27;1.33;;;0.30;;
64335;SDS011;50672;53.362;-6.240;2023-03-01T04:05:57;1.03;;;0.30;;
64335;SDS011;50672;53.362;-6.240;2023-03-01T04:08:25;2.67;;;0.60;;
64335;SDS011;50672;53.362;-6.240;2023-03-01T04:10:56;2.37;;;0.53;;
64335;SDS011;50672;53.362;-6.240;2023-03-01T04:13:26;3.53;;;0.43;;
64335;SDS011;50672;53.362;-6.240;2023-03-01T04:15:53;2.10;;;0.50;;
64335;SDS011;50672;53.362;-6.240;2023-03-01T04:18:21;1.10;;;0.63;;
64335;SDS011;50672;53.362;-6.240;2023-03-01T04:20:50;1.43;;;0.40;;
64335;SDS011;50672;53.362;-6.240;2023-03-01T04:23:19;1.07;;;0.40;;
64335;SDS011;50672;53.362;-6.240;2023-03-01T04:25:48;1.17;;;0.37;;
64335;SDS011;50672;53.362;-6.240;2023-03-01T04:28:28;0.40;;;0.40;;
64335;SDS011;50672;53.362;-6.240;2023-03-01T04:31:05;1.93;;;0.50;;
64335;SDS011;50672;53.362;-6.240;2023-03-01T04:33:41;0.63;;;0.40;;
64335;SDS011;50672;53.362;-6.240;2023-03-01T04:36:09;2.17;;;0.30;;
64335;SDS011;50672;53.362;-6.240;2023-03-01T04:38:37;1.73;;;0.30;;
64335;SDS011;50672;53.362;-6.240;2023-03-01T04:41:11;0.43;;;0.40;;
64335;SDS011;50672;53.362;-6.240;2023-03-01T04:43:44;4.20;;;1.17;;
64335;SDS011;50672;53.362;-6.240;2023-03-01T04:46:12;1.87;;;0.40;;
64335;SDS011;50672;53.362;-6.240;2023-03-01T04:48:41;1.70;;;0.30;;
64335;SDS011;50672;53.362;-6.240;2023-03-01T04:51:09;2.20;;;0.70;;
64335;SDS011;50672;53.362;-6.240;2023-03-01T04:53:40;2.00;;;0.40;;
64335;SDS011;50672;53.362;-6.240;2023-03-01T04:56:07;2.40;;;0.40;;
64335;SDS011;50672;53.362;-6.240;2023-03-01T04:58:34;2.93;;;1.27;;
64335;SDS011;50672;53.362;-6.240;2023-03-01T05:01:01;3.53;;;0.43;;
64335;SDS011;50672;53.362;-6.240;2023-03-01T05:03:27;0.57;;;0.40;;
64335;SDS011;50672;53.362;-6.240;2023-03-01T05:05:54;3.07;;;0.60;;
64335;SDS011;50672;53.362;-6.240;2023-03-01T05:08:26;0.87;;;0.30;;
64335;SDS011;50672;53.362;-6.240;2023-03-01T05:10:53;2.60;;;0.40;;
64335;SDS011;50672;53.362;-6.240;2023-03-01T05:13:20;0.70;;;0.50;;
64335;SDS011;50672;53.362;-6.240;2023-03-01T05:18:21;1.30;;;0.47;;
64335;SDS011;50672;53.362;-6.240;2023-03-01T05:21:03;2.43;;;0.70;;
64335;SDS011;50672;53.362;-6.240;2023-03-01T05:23:30;0.97;;;0.40;;
64335;SDS011;50672;53.362;-6.240;2023-03-01T05:25:58;1.23;;;0.40;;
64335;SDS011;50672;53.362;-6.240;2023-03-01T05:28:26;3.40;;;0.30;;
64335;SDS011;50672;53.362;-6.240;2023-03-01T05:30:54;1.60;;;0.73;;
64335;SDS011;50672;53.362;-6.240;2023-03-01T05:33:21;3.70;;;0.67;;
64335;SDS011;50672;53.362;-6.240;2023-03-01T05:35:59;1.40;;;0.70;;
64335;SDS011;50672;53.362;-6.240;2023-03-01T05:38:26;0.93;;;0.30;;
64335;SDS011;50672;53.362;-6.240;2023-03-01T05:40:53;4.80;;;0.60;;
64335;SDS011;50672;53.362;-6.240;2023-03-01T05:43:29;1.73;;;0.50;;
64335;SDS011;50672;53.362;-6.240;2023-03-01T05:45:57;1.37;;;0.60;;
64335;SDS011;50672;53.362;-6.240;2023-03-01T05:48:24;1.63;;;0.60;;
64335;SDS011;50672;53.362;-6.240;2023-03-01T05:50:51;4.17;;;0.90;;
64335;SDS011;50672;53.362;-6.240;2023-03-01T05:53:19;4.47;;;0.50;;
64335;SDS011;50672;53.362;-6.240;2023-03-01T05:55:49;2.90;;;0.90;;
64335;SDS011;50672;53.362;-6.240;2023-03-01T05:58:17;4.13;;;0.70;;
64335;SDS011;50672;53.362;-6.240;2023-03-01T06:00:46;1.63;;;0.47;;
64335;SDS011;50672;53.362;-6.240;2023-03-01T06:03:15;2.43;;;0.73;;
64335;SDS011;50672;53.362;-6.240;2023-03-01T06:05:43;3.50;;;0.83;;
64335;SDS011;50672;53.362;-6.240;2023-03-01T06:08:11;3.03;;;0.77;;
64335;SDS011;50672;53.362;-6.240;2023-03-01T06:10:46;4.20;;;0.70;;
64335;SDS011;50672;53.362;-6.240;2023-03-01T06:13:13;1.93;;;0.67;;
64335;SDS011;50672;53.362;-6.240;2023-03-01T06:15:40;3.10;;;0.57;;
64335;SDS011;50672;53.362;-6.240;2023-03-01T06:18:08;1.87;;;0.60;;
64335;SDS011;50672;53.362;-6.240;2023-03-01T06:20:35;3.33;;;0.70;;
64335;SDS011;50672;53.362;-6.240;2023-03-01T06:23:02;2.77;;;0.60;;
64335;SDS011;50672;53.362;-6.240;2023-03-01T06:25:36;2.07;;;0.67;;
64335;SDS011;50672;53.362;-6.240;2023-03-01T06:28:03;1.87;;;0.50;;
64335;SDS011;50672;53.362;-6.240;2023-03-01T06:30:30;1.07;;;0.50;;
64335;SDS011;50672;53.362;-6.240;2023-03-01T06:33:04;2.70;;;0.50;;
64335;SDS011;50672;53.362;-6.240;2023-03-01T06:35:31;2.10;;;0.90;;
64335;SDS011;50672;53.362;-6.240;2023-03-01T06:37:59;1.80;;;0.60;;
64335;SDS011;50672;53.362;-6.240;2023-03-01T06:40:36;0.43;;;0.40;;
64335;SDS011;50672;53.362;-6.240;2023-03-01T06:43:02;4.83;;;0.60;;
64335;SDS011;50672;53.362;-6.240;2023-03-01T06:45:29;1.53;;;0.50;;
64335;SDS011;50672;53.362;-6.240;2023-03-01T06:48:06;3.70;;;1.37;;
64335;SDS011;50672;53.362;-6.240;2023-03-01T06:50:33;2.63;;;0.67;;
64335;SDS011;50672;53.362;-6.240;2023-03-01T06:53:08;5.47;;;0.93;;
64335;SDS011;50672;53.362;-6.240;2023-03-01T06:55:35;0.77;;;0.57;;
64335;SDS011;50672;53.362;-6.240;2023-03-01T06:58:02;4.77;;;0.70;;
64335;SDS011;50672;53.362;-6.240;2023-03-01T07:00:29;5.90;;;0.70;;
64335;SDS011;50672;53.362;-6.240;2023-03-01T07:02:58;1.13;;;0.63;;
64335;SDS011;50672;53.362;-6.240;2023-03-01T07:05:26;2.00;;;0.60;;
64335;SDS011;50672;53.362;-6.240;2023-03-01T07:07:53;1.07;;;0.50;;
64335;SDS011;50672;53.362;-6.240;2023-03-01T07:10:21;2.60;;;1.00;;
64335;SDS011;50672;53.362;-6.240;2023-03-01T07:12:48;2.63;;;0.80;;
64335;SDS011;50672;53.362;-6.240;2023-03-01T07:15:15;3.03;;;1.00;;
64335;SDS011;50672;53.362;-6.240;2023-03-01T07:17:41;2.07;;;0.73;;
64335;SDS011;50672;53.362;-6.240;2023-03-01T07:20:11;3.20;;;0.70;;
64335;SDS011;50672;53.362;-6.240;2023-03-01T07:22:39;1.97;;;0.50;;
64335;SDS011;50672;53.362;-6.240;2023-03-01T07:25:07;1.20;;;0.43;;
64335;SDS011;50672;53.362;-6.240;2023-03-01T07:27:35;4.20;;;0.63;;
64335;SDS011;50672;53.362;-6.240;2023-03-01T07:30:02;1.53;;;0.90;;
64335;SDS011;50672;53.362;-6.240;2023-03-01T07:32:29;1.90;;;0.70;;
64335;SDS011;50672;53.362;-6.240;2023-03-01T07:34:56;3.20;;;0.93;;
64335;SDS011;50672;53.362;-6.240;2023-03-01T07:37:23;4.17;;;1.20;;
64335;SDS011;50672;53.362;-6.240;2023-03-01T07:39:50;3.70;;;1.13;;
64335;SDS011;50672;53.362;-6.240;2023-03-01T07:42:17;4.17;;;0.80;;
64335;SDS011;50672;53.362;-6.240;2023-03-01T07:44:44;3.30;;;0.77;;
64335;SDS011;50672;53.362;-6.240;2023-03-01T07:47:10;2.97;;;1.00;;
64335;SDS011;50672;53.362;-6.240;2023-03-01T07:49:37;3.00;;;0.70;;
64335;SDS011;50672;53.362;-6.240;2023-03-01T07:52:04;1.87;;;0.50;;
64335;SDS011;50672;53.362;-6.240;2023-03-01T07:54:31;1.13;;;0.60;;
64335;SDS011;50672;53.362;-6.240;2023-03-01T07:56:57;1.70;;;0.80;;
64335;SDS011;50672;53.362;-6.240;2023-03-01T07:59:24;1.57;;;0.60;;
64335;SDS011;50672;53.362;-6.240;2023-03-01T08:01:55;2.60;;;0.50;;
64335;SDS011;50672;53.362;-6.240;2023-03-01T08:04:23;1.50;;;0.70;;
64335;SDS011;50672;53.362;-6.240;2023-03-01T08:06:51;1.87;;;0.47;;
64335;SDS011;50672;53.362;-6.240;2023-03-01T08:09:18;3.47;;;0.77;;
64335;SDS011;50672;53.362;-6.240;2023-03-01T08:11:44;4.63;;;0.50;;
64335;SDS011;50672;53.362;-6.240;2023-03-01T08:14:11;3.30;;;0.43;;
64335;SDS011;50672;53.362;-6.240;2023-03-01T08:16:38;3.37;;;0.50;;
64335;SDS011;50672;53.362;-6.240;2023-03-01T08:19:06;0.80;;;0.50;;
64335;SDS011;50672;53.362;-6.240;2023-03-01T08:21:34;1.20;;;0.60;;
64335;SDS011;50672;53.362;-6.240;2023-03-01T08:24:01;0.90;;;0.40;;
64335;SDS011;50672;53.362;-6.240;2023-03-01T08:26:32;4.50;;;0.60;;
64335;SDS011;50672;53.362;-6.240;2023-03-01T08:29:00;1.70;;;0.63;;
64335;SDS011;50672;53.362;-6.240;2023-03-01T08:31:29;2.77;;;0.80;;
64335;SDS011;50672;53.362;-6.240;2023-03-01T08:34:03;0.80;;;0.40;;
64335;SDS011;50672;53.362;-6.240;2023-03-01T08:36:35;3.40;;;0.53;;
64335;SDS011;50672;53.362;-6.240;2023-03-01T08:39:04;3.20;;;0.70;;
64335;SDS011;50672;53.362;-6.240;2023-03-01T08:41:32;0.77;;;0.40;;
64335;SDS011;50672;53.362;-6.240;2023-03-01T08:43:59;3.03;;;0.70;;
64335;SDS011;50672;53.362;-6.240;2023-03-01T08:46:27;2.13;;;1.10;;
64335;SDS011;50672;53.362;-6.240;2023-03-01T08:48:55;0.97;;;0.40;;
64335;SDS011;50672;53.362;-6.240;2023-03-01T08:51:22;2.13;;;0.50;;
64335;SDS011;50672;53.362;-6.240;2023-03-01T08:53:50;2.77;;;0.50;;
64335;SDS011;50672;53.362;-6.240;2023-03-01T08:56:17;4.10;;;0.77;;
64335;SDS011;50672;53.362;-6.240;2023-03-01T08:58:46;3.77;;;0.60;;
64335;SDS011;50672;53.362;-6.240;2023-03-01T09:01:15;1.60;;;0.70;;
64335;SDS011;50672;53.362;-6.240;2023-03-01T09:03:44;1.83;;;0.60;;
64335;SDS011;50672;53.362;-6.240;2023-03-01T09:06:11;2.53;;;0.67;;
64335;SDS011;50672;53.362;-6.240;2023-03-01T09:08:38;3.10;;;0.70;;
64335;SDS011;50672;53.362;-6.240;2023-03-01T09:11:07;4.77;;;1.37;;
64335;SDS011;50672;53.362;-6.240;2023-03-01T09:13:36;3.33;;;0.43;;
64335;SDS011;50672;53.362;-6.240;2023-03-01T09:16:05;3.50;;;0.40;;
64335;SDS011;50672;53.362;-6.240;2023-03-01T09:18:33;0.40;;;0.30;;
64335;SDS011;50672;53.362;-6.240;2023-03-01T09:21:06;1.53;;;0.90;;
64335;SDS011;50672;53.362;-6.240;2023-03-01T09:23:35;1.83;;;0.70;;
64335;SDS011;50672;53.362;-6.240;2023-03-01T09:26:06;1.43;;;0.70;;
64335;SDS011;50672;53.362;-6.240;2023-03-01T09:28:37;3.57;;;0.50;;
64335;SDS011;50672;53.362;-6.240;2023-03-01T09:31:04;1.23;;;0.60;;
64335;SDS011;50672;53.362;-6.240;2023-03-01T09:33:32;2.43;;;0.43;;
64335;SDS011;50672;53.362;-6.240;2023-03-01T09:36:03;2.30;;;0.63;;
64335;SDS011;50672;53.362;-6.240;2023-03-01T09:38:31;0.32;;;0.30;;
64335;SDS011;50672;53.362;-6.240;2023-03-01T09:40:59;1.63;;;0.50;;
64335;SDS011;50672;53.362;-6.240;2023-03-01T09:46:11;1.45;;;0.90;;
64335;SDS011;50672;53.362;-6.240;2023-03-01T09:48:50;2.00;;;0.52;;
64335;SDS011;50672;53.362;-6.240;2023-03-01T09:51:40;1.33;;;0.40;;
64335;SDS011;50672;53.362;-6.240;2023-03-01T09:54:08;1.20;;;0.50;;
64335;SDS011;50672;53.362;-6.240;2023-03-01T09:56:41;2.60;;;0.70;;
64335;SDS011;50672;53.362;-6.240;2023-03-01T10:02:34;1.13;;;0.50;;
64335;SDS011;50672;53.362;-6.240;2023-03-01T10:07:42;0.57;;;0.50;;
64335;SDS011;50672;53.362;-6.240;2023-03-01T10:10:35;2.93;;;0.50;;
64335;SDS011;50672;53.362;-6.240;2023-03-01T10:14:07;0.80;;;0.47;;
64335;SDS011;50672;53.362;-6.240;2023-03-01T10:16:13;2.17;;;0.70;;
64335;SDS011;50672;53.362;-6.240;2023-03-01T10:18:44;1.45;;;0.55;;
64335;SDS011;50672;53.362;-6.240;2023-03-01T10:21:17;3.10;;;0.60;;
64335;SDS011;50672;53.362;-6.240;2023-03-01T10:23:45;3.10;;;0.60;;
64335;SDS011;50672;53.362;-6.240;2023-03-01T10:26:24;2.00;;;1.20;;
64335;SDS011;50672;53.362;-6.240;2023-03-01T10:29:12;0.87;;;0.70;;
64335;SDS011;50672;53.362;-6.240;2023-03-01T10:31:49;0.90;;;0.40;;
64335;SDS011;50672;53.362;-6.240;2023-03-01T10:34:28;0.90;;;0.50;;
64335;SDS011;50672;53.362;-6.240;2023-03-01T10:36:58;2.23;;;0.30;;
64335;SDS011;50672;53.362;-6.240;2023-03-01T10:39:53;3.90;;;0.60;;
64335;SDS011;50672;53.362;-6.240;2023-03-01T10:45:47;0.93;;;0.30;;
64335;SDS011;50672;53.362;-6.240;2023-03-01T10:48:14;3.67;;;0.50;;
64335;SDS011;50672;53.362;-6.240;2023-03-01T10:50:46;1.07;;;0.60;;
64335;SDS011;50672;53.362;-6.240;2023-03-01T10:53:25;1.98;;;0.30;;
64335;SDS011;50672;53.362;-6.240;2023-03-01T10:58:40;1.97;;;0.57;;
64335;SDS011;50672;53.362;-6.240;2023-03-01T11:01:24;2.83;;;0.63;;
64335;SDS011;50672;53.362;-6.240;2023-03-01T11:06:33;1.43;;;0.50;;
64335;SDS011;50672;53.362;-6.240;2023-03-01T11:09:18;2.03;;;0.50;;
64335;SDS011;50672;53.362;-6.240;2023-03-01T11:11:53;0.80;;;0.50;;
64335;SDS011;50672;53.362;-6.240;2023-03-01T11:14:23;1.80;;;0.70;;
64335;SDS011;50672;53.362;-6.240;2023-03-01T11:19:32;1.77;;;0.50;;
64335;SDS011;50672;53.362;-6.240;2023-03-01T11:22:10;1.73;;;0.40;;
64335;SDS011;50672;53.362;-6.240;2023-03-01T11:24:41;1.70;;;0.70;;
64335;SDS011;50672;53.362;-6.240;2023-03-01T11:35:57;0.43;;;0.30;;
64335;SDS011;50672;53.362;-6.240;2023-03-01T11:38:29;0.55;;;0.55;;
64335;SDS011;50672;53.362;-6.240;2023-03-01T11:41:17;1.10;;;0.40;;
64335;SDS011;50672;53.362;-6.240;2023-03-01T11:51:38;0.50;;;0.40;;
64335;SDS011;50672;53.362;-6.240;2023-03-01T12:26:34;2.37;;;0.57;;
64335;SDS011;50672;53.362;-6.240;2023-03-01T12:45:48;2.10;;;1.20;;
64335;SDS011;50672;53.362;-6.240;2023-03-01T12:51:35;4.10;;;1.20;;
64335;SDS011;50672;53.362;-6.240;2023-03-01T12:54:11;2.50;;;0.60;;
64335;SDS011;50672;53.362;-6.240;2023-03-01T12:56:42;2.10;;;0.70;;
64335;SDS011;50672;53.362;-6.240;2023-03-01T13:02:18;1.70;;;0.60;;
64335;SDS011;50672;53.362;-6.240;2023-03-01T13:07:41;1.50;;;0.70;;
64335;SDS011;50672;53.362;-6.240;2023-03-01T13:10:34;1.53;;;0.70;;
64335;SDS011;50672;53.362;-6.240;2023-03-01T13:13:23;1.07;;;0.80;;
64335;SDS011;50672;53.362;-6.240;2023-03-01T13:15:51;1.40;;;0.77;;
64335;SDS011;50672;53.362;-6.240;2023-03-01T13:20:47;3.17;;;1.00;;
64335;SDS011;50672;53.362;-6.240;2023-03-01T13:28:39;3.77;;;1.30;;
64335;SDS011;50672;53.362;-6.240;2023-03-01T13:33:48;2.60;;;1.23;;
64335;SDS011;50672;53.362;-6.240;2023-03-01T13:44:12;2.97;;;1.70;;
64335;SDS011;50672;53.362;-6.240;2023-03-01T13:46:47;1.43;;;1.20;;
64335;SDS011;50672;53.362;-6.240;2023-03-01T13:49:28;1.20;;;0.90;;
64335;SDS011;50672;53.362;-6.240;2023-03-01T13:54:53;1.60;;;0.85;;
64335;SDS011;50672;53.362;-6.240;2023-03-01T13:57:22;1.93;;;0.90;;
64335;SDS011;50672;53.362;-6.240;2023-03-01T13:59:56;2.23;;;0.70;;
64335;SDS011;50672;53.362;-6.240;2023-03-01T14:02:22;2.20;;;0.70;;
64335;SDS011;50672;53.362;-6.240;2023-03-01T14:04:56;5.83;;;0.63;;
64335;SDS011;50672;53.362;-6.240;2023-03-01T14:07:25;2.10;;;0.50;;
64335;SDS011;50672;53.362;-6.240;2023-03-01T14:09:59;4.33;;;1.37;;
64335;SDS011;50672;53.362;-6.240;2023-03-01T14:21:22;6.57;;;3.60;;
64335;SDS011;50672;53.362;-6.240;2023-03-01T14:23:49;12.23;;;6.27;;
64335;SDS011;50672;53.362;-6.240;2023-03-01T14:26:19;22.50;;;12.20;;
64335;SDS011;50672;53.362;-6.240;2023-03-01T14:28:48;4.15;;;2.65;;
64335;SDS011;50672;53.362;-6.240;2023-03-01T14:34:16;5.67;;;3.10;;
64335;SDS011;50672;53.362;-6.240;2023-03-01T14:36:46;2.73;;;1.30;;
64335;SDS011;50672;53.362;-6.240;2023-03-01T14:39:20;0.97;;;0.73;;
64335;SDS011;50672;53.362;-6.240;2023-03-01T14:41:52;3.13;;;0.70;;
64335;SDS011;50672;53.362;-6.240;2023-03-01T14:44:20;3.47;;;2.50;;
64335;SDS011;50672;53.362;-6.240;2023-03-01T14:46:51;1.73;;;0.90;;
64335;SDS011;50672;53.362;-6.240;2023-03-01T14:49:22;1.77;;;1.00;;
64335;SDS011;50672;53.362;-6.240;2023-03-01T14:52:37;2.77;;;1.23;;
64335;SDS011;50672;53.362;-6.240;2023-03-01T14:57:25;2.93;;;1.10;;
64335;SDS011;50672;53.362;-6.240;2023-03-01T14:59:53;1.27;;;0.60;;
64335;SDS011;50672;53.362;-6.240;2023-03-01T15:02:24;2.77;;;1.40;;
64335;SDS011;50672;53.362;-6.240;2023-03-01T15:04:54;2.53;;;1.30;;
64335;SDS011;50672;53.362;-6.240;2023-03-01T15:07:24;4.63;;;1.20;;
64335;SDS011;50672;53.362;-6.240;2023-03-01T15:14:55;1.25;;;1.15;;
64335;SDS011;50672;53.362;-6.240;2023-03-01T15:17:33;1.60;;;1.37;;
64335;SDS011;50672;53.362;-6.240;2023-03-01T15:20:04;2.33;;;2.13;;
64335;SDS011;50672;53.362;-6.240;2023-03-01T15:22:33;4.43;;;4.07;;
64335;SDS011;50672;53.362;-6.240;2023-03-01T15:25:01;2.73;;;1.67;;
64335;SDS011;50672;53.362;-6.240;2023-03-01T15:27:28;2.40;;;1.90;;
64335;SDS011;50672;53.362;-6.240;2023-03-01T15:29:55;6.70;;;1.23;;
64335;SDS011;50672;53.362;-6.240;2023-03-01T15:32:29;1.90;;;1.20;;
64335;SDS011;50672;53.362;-6.240;2023-03-01T15:34:58;1.07;;;0.80;;
64335;SDS011;50672;53.362;-6.240;2023-03-01T15:40:29;2.53;;;0.80;;
64335;SDS011;50672;53.362;-6.240;2023-03-01T15:43:03;0.73;;;0.60;;
64335;SDS011;50672;53.362;-6.240;2023-03-01T15:45:32;3.75;;;0.80;;
64335;SDS011;50672;53.362;-6.240;2023-03-01T15:48:05;1.87;;;1.00;;
64335;SDS011;50672;53.362;-6.240;2023-03-01T15:50:44;4.30;;;0.80;;
64335;SDS011;50672;53.362;-6.240;2023-03-01T15:53:20;0.77;;;0.63;;
64335;SDS011;50672;53.362;-6.240;2023-03-01T15:55:47;1.30;;;0.30;;
64335;SDS011;50672;53.362;-6.240;2023-03-01T15:58:20;0.60;;;0.50;;
64335;SDS011;50672;53.362;-6.240;2023-03-01T16:00:49;0.93;;;0.63;;
64335;SDS011;50672;53.362;-6.240;2023-03-01T16:03:27;5.43;;;0.97;;
64335;SDS011;50672;53.362;-6.240;2023-03-01T16:05:54;1.57;;;0.70;;
64335;SDS011;50672;53.362;-6.240;2023-03-01T16:08:21;1.37;;;0.70;;
64335;SDS011;50672;53.362;-6.240;2023-03-01T16:10:48;4.40;;;0.93;;
64335;SDS011;50672;53.362;-6.240;2023-03-01T16:13:17;1.57;;;0.80;;
64335;SDS011;50672;53.362;-6.240;2023-03-01T16:15:45;1.53;;;0.83;;
64335;SDS011;50672;53.362;-6.240;2023-03-01T16:18:12;1.80;;;0.73;;
64335;SDS011;50672;53.362;-6.240;2023-03-01T16:20:39;2.80;;;0.90;;
64335;SDS011;50672;53.362;-6.240;2023-03-01T16:23:07;3.33;;;0.77;;
64335;SDS011;50672;53.362;-6.240;2023-03-01T16:25:34;6.40;;;2.90;;
64335;SDS011;50672;53.362;-6.240;2023-03-01T16:28:02;5.33;;;1.70;;
64335;SDS011;50672;53.362;-6.240;2023-03-01T16:30:35;7.17;;;2.80;;
64335;SDS011;50672;53.362;-6.240;2023-03-01T16:33:02;7.67;;;3.83;;
64335;SDS011;50672;53.362;-6.240;2023-03-01T16:35:49;9.00;;;4.70;;
64335;SDS011;50672;53.362;-6.240;2023-03-01T16:38:17;12.80;;;7.10;;
64335;SDS011;50672;53.362;-6.240;2023-03-01T16:40:46;5.17;;;3.10;;
64335;SDS011;50672;53.362;-6.240;2023-03-01T16:43:15;4.77;;;1.40;;
64335;SDS011;50672;53.362;-6.240;2023-03-01T16:45:41;5.73;;;2.90;;
64335;SDS011;50672;53.362;-6.240;2023-03-01T16:48:11;15.33;;;7.17;;
64335;SDS011;50672;53.362;-6.240;2023-03-01T16:50:38;9.13;;;3.90;;
64335;SDS011;50672;53.362;-6.240;2023-03-01T16:53:05;6.47;;;3.10;;
64335;SDS011;50672;53.362;-6.240;2023-03-01T16:55:32;10.30;;;4.57;;
64335;SDS011;50672;53.362;-6.240;2023-03-01T16:57:59;6.17;;;3.10;;
64335;SDS011;50672;53.362;-6.240;2023-03-01T17:00:27;8.90;;;4.10;;
64335;SDS011;50672;53.362;-6.240;2023-03-01T17:02:54;5.17;;;3.00;;
64335;SDS011;50672;53.362;-6.240;2023-03-01T17:05:21;8.13;;;4.30;;
64335;SDS011;50672;53.362;-6.240;2023-03-01T17:07:50;16.53;;;10.20;;
64335;SDS011;50672;53.362;-6.240;2023-03-01T17:10:17;12.70;;;6.77;;
64335;SDS011;50672;53.362;-6.240;2023-03-01T17:12:47;7.40;;;3.97;;
64335;SDS011;50672;53.362;-6.240;2023-03-01T17:15:14;4.67;;;2.10;;
64335;SDS011;50672;53.362;-6.240;2023-03-01T17:17:41;4.53;;;2.33;;
64335;SDS011;50672;53.362;-6.240;2023-03-01T17:20:08;5.93;;;2.00;;
64335;SDS011;50672;53.362;-6.240;2023-03-01T17:22:35;6.13;;;2.33;;
64335;SDS011;50672;53.362;-6.240;2023-03-01T17:25:02;3.60;;;1.80;;
64335;SDS011;50672;53.362;-6.240;2023-03-01T17:27:29;5.97;;;2.20;;
64335;SDS011;50672;53.362;-6.240;2023-03-01T17:30:01;4.13;;;2.00;;
64335;SDS011;50672;53.362;-6.240;2023-03-01T17:32:28;4.40;;;2.00;;